createdAt,value
2019-03-04T00:02:44.439Z,95.10
2019-03-04T00:06:48.048Z,95.00
2019-03-04T00:10:51.653Z,94.90
2019-03-04T00:14:55.268Z,95.40
2019-03-04T00:18:58.879Z,95.20
2019-03-04T00:23:02.472Z,95.40
2019-03-04T00:27:06.073Z,95.60
2019-03-04T00:31:09.680Z,95.60
2019-03-04T00:35:13.279Z,95.90
2019-03-04T00:39:16.887Z,96.00
2019-03-04T00:43:20.463Z,96.40
2019-03-04T00:47:24.060Z,96.60
2019-03-04T00:51:47.002Z,96.50
2019-03-04T00:55:50.599Z,96.60
2019-03-04T00:59:54.204Z,96.40
2019-03-04T01:03:57.789Z,96.70
2019-03-04T01:08:01.376Z,96.60
2019-03-04T01:12:05.132Z,96.60
2019-03-04T01:16:08.790Z,96.90
2019-03-04T01:20:14.734Z,97.00
2019-03-04T01:24:18.348Z,96.90
2019-03-04T01:28:21.927Z,96.80
2019-03-04T01:32:25.597Z,96.50
2019-03-04T01:36:29.201Z,96.20
2019-03-04T01:40:32.805Z,96.30
2019-03-04T01:44:36.375Z,96.30
2019-03-04T01:48:39.971Z,96.30
2019-03-04T01:52:44.013Z,96.50
2019-03-04T01:56:47.611Z,96.70
2019-03-04T02:00:51.227Z,96.70
2019-03-04T02:04:54.954Z,96.80
2019-03-04T02:08:58.523Z,96.60
2019-03-04T02:13:02.133Z,96.60
2019-03-04T02:17:05.848Z,96.60
2019-03-04T02:21:09.452Z,96.40
2019-03-04T02:25:15.292Z,96.40
2019-03-04T02:29:18.888Z,96.30
2019-03-04T02:33:22.487Z,96.20
2019-03-04T02:37:26.114Z,96.20
2019-03-04T02:41:29.712Z,96.10
2019-03-04T02:45:33.313Z,96.00
2019-03-04T02:49:36.884Z,95.80
2019-03-04T02:53:40.517Z,95.60
2019-03-04T02:57:44.377Z,95.20
2019-03-04T03:01:47.975Z,95.20
2019-03-04T03:05:51.572Z,94.90
2019-03-04T03:09:55.168Z,94.80
2019-03-04T03:13:58.842Z,94.90
2019-03-04T03:18:02.429Z,95.00
2019-03-04T03:22:06.029Z,95.00
2019-03-04T03:26:09.629Z,95.00
2019-03-04T03:30:16.334Z,95.10
2019-03-04T03:34:19.941Z,95.00
2019-03-04T03:38:23.520Z,95.10
2019-03-04T03:42:27.477Z,95.00
2019-03-04T03:46:31.085Z,94.90
2019-03-04T03:50:34.660Z,94.90
2019-03-04T03:54:38.326Z,94.80
2019-03-04T03:58:41.945Z,94.50
2019-03-04T04:02:45.550Z,94.60
2019-03-04T04:06:49.174Z,94.60
2019-03-04T04:10:52.757Z,94.60
2019-03-04T04:14:56.370Z,94.50
2019-03-04T04:19:00.022Z,94.50
2019-03-04T04:23:03.642Z,94.50
2019-03-04T04:27:07.308Z,94.50
2019-03-04T04:31:10.903Z,94.50
2019-03-04T04:35:14.492Z,94.40
2019-03-04T04:39:18.128Z,94.00
2019-03-04T04:43:21.744Z,93.90
2019-03-04T04:47:25.416Z,93.60
2019-03-04T04:51:29.042Z,93.50
2019-03-04T04:55:32.710Z,93.50
2019-03-04T04:59:36.306Z,93.40
2019-03-04T05:03:39.914Z,93.40
2019-03-04T05:07:43.674Z,93.00
2019-03-04T05:11:47.261Z,92.70
2019-03-04T05:15:50.839Z,92.80
2019-03-04T05:19:54.446Z,92.80
2019-03-04T05:23:58.076Z,92.70
2019-03-04T05:28:01.682Z,92.70
2019-03-04T05:32:05.300Z,92.40
2019-03-04T05:36:09.087Z,92.40
2019-03-04T05:40:17.400Z,92.40
2019-03-04T05:44:21.025Z,92.40
2019-03-04T05:48:24.634Z,92.40
2019-03-04T05:52:28.215Z,92.40
2019-03-04T05:56:31.801Z,92.40
2019-03-04T06:00:40.279Z,92.10
2019-03-04T06:04:43.989Z,92.10
2019-03-04T06:08:47.611Z,92.20
2019-03-04T06:12:51.237Z,92.20
2019-03-04T06:16:54.796Z,92.30
2019-03-04T06:20:58.407Z,91.90
2019-03-04T06:25:02.030Z,91.90
2019-03-04T06:29:05.640Z,91.90
2019-03-04T06:33:09.236Z,91.80
2019-03-04T06:37:12.828Z,91.60
2019-03-04T06:41:16.431Z,91.10
2019-03-04T06:45:20.899Z,90.90
2019-03-04T06:49:24.500Z,91.00
2019-03-04T06:53:31.186Z,90.70
2019-03-04T06:57:34.776Z,90.60
2019-03-04T07:01:56.955Z,90.70
2019-03-04T07:06:00.561Z,90.30
2019-03-04T07:10:07.009Z,90.30
2019-03-04T07:14:10.688Z,89.30
2019-03-04T07:18:14.912Z,89.80
2019-03-04T07:22:18.501Z,90.10
2019-03-04T07:26:22.524Z,89.80
2019-03-04T07:30:26.136Z,90.00
2019-03-04T07:34:29.806Z,90.00
2019-03-04T07:38:54.205Z,89.00
2019-03-04T07:42:57.780Z,88.30
2019-03-04T07:47:01.389Z,88.30
2019-03-04T07:51:18.828Z,87.60
2019-03-04T07:55:22.504Z,87.30
2019-03-04T07:59:26.108Z,87.30
2019-03-04T08:03:29.700Z,86.10
2019-03-04T08:07:45.204Z,84.50
2019-03-04T08:12:15.790Z,84.10
2019-03-04T08:16:19.461Z,84.00
2019-03-04T08:20:23.082Z,83.60
2019-03-04T08:24:26.696Z,82.30
2019-03-04T08:28:30.332Z,78.20
2019-03-04T08:32:33.931Z,77.20
2019-03-04T08:36:37.536Z,77.20
2019-03-04T08:40:41.147Z,77.10
2019-03-04T08:44:45.080Z,79.40
2019-03-04T08:48:48.688Z,76.70
2019-03-04T08:52:52.301Z,77.10
2019-03-04T08:57:03.636Z,78.20
2019-03-04T09:01:01.167Z,86.40
2019-03-04T09:05:08.088Z,91.60
2019-03-04T09:09:11.756Z,91.60
2019-03-04T09:13:15.347Z,91.20
2019-03-04T09:17:38.285Z,92.00
2019-03-04T09:21:42.022Z,91.00
2019-03-04T09:25:49.010Z,90.90
2019-03-04T09:29:52.582Z,92.20
2019-03-04T09:33:56.163Z,91.90
2019-03-04T09:37:59.740Z,91.00
2019-03-04T09:42:04.975Z,90.80
2019-03-04T09:46:08.558Z,90.10
2019-03-04T09:50:17.775Z,90.00
2019-03-04T09:54:21.454Z,90.30
2019-03-04T09:58:25.028Z,90.10
2019-03-04T10:02:28.684Z,89.10
2019-03-04T10:06:35.372Z,89.80
2019-03-04T10:10:48.075Z,90.00
2019-03-04T10:15:20.587Z,90.60
2019-03-04T10:19:43.857Z,89.90
2019-03-04T10:23:53.055Z,89.80
2019-03-04T10:28:23.655Z,90.00
2019-03-04T10:32:41.659Z,90.90
2019-03-04T10:37:03.247Z,91.50
2019-03-04T10:41:21.224Z,92.30
2019-03-04T10:45:53.591Z,92.30
2019-03-04T10:49:57.437Z,92.40
2019-03-04T10:54:01.120Z,92.30
2019-03-04T10:58:04.793Z,93.30
2019-03-04T11:02:08.368Z,92.60
2019-03-04T11:06:11.946Z,92.20
2019-03-04T11:10:15.665Z,90.80
2019-03-04T11:14:19.264Z,88.60
2019-03-04T11:18:22.861Z,88.20
2019-03-04T11:22:26.457Z,89.10
2019-03-04T11:26:30.104Z,88.80
2019-03-04T11:30:33.764Z,88.60
2019-03-04T11:34:37.332Z,86.00
2019-03-04T11:38:50.208Z,85.30
2019-03-04T11:42:53.864Z,85.60
2019-03-04T11:46:57.459Z,84.30
2019-03-04T11:51:01.043Z,83.80
2019-03-04T11:55:06.923Z,81.50
2019-03-04T11:59:10.530Z,81.10
2019-03-04T12:03:14.137Z,78.90
2019-03-04T12:07:17.716Z,80.00
2019-03-04T12:11:21.311Z,78.40
2019-03-04T12:15:24.907Z,78.00
2019-03-04T12:19:28.891Z,77.90
2019-03-04T12:23:32.499Z,78.30
2019-03-04T12:27:36.066Z,81.30
2019-03-04T12:31:41.312Z,84.80
2019-03-04T12:35:45.176Z,84.90
2019-03-04T12:39:48.763Z,81.30
2019-03-04T12:43:52.364Z,82.50
2019-03-04T12:47:55.945Z,90.20
2019-03-04T12:51:59.591Z,95.30
2019-03-04T12:56:03.250Z,95.90
2019-03-04T13:00:12.764Z,95.90
2019-03-04T13:04:16.376Z,95.00
2019-03-04T13:08:19.968Z,95.80
2019-03-04T13:12:23.610Z,96.30
2019-03-04T13:16:27.997Z,96.00
2019-03-04T13:20:32.310Z,96.20
2019-03-04T13:24:35.923Z,96.90
2019-03-04T13:28:39.499Z,96.60
2019-03-04T13:32:43.280Z,95.90
2019-03-04T13:36:46.874Z,95.10
2019-03-04T13:40:50.478Z,95.80
2019-03-04T13:44:54.072Z,96.10
2019-03-04T13:48:57.647Z,95.80
2019-03-04T13:53:01.663Z,95.10
2019-03-04T13:57:05.368Z,94.90
2019-03-04T14:01:09.026Z,94.80
2019-03-04T14:05:14.561Z,95.00
2019-03-04T14:09:19.615Z,94.40
2019-03-04T14:13:23.275Z,93.60
2019-03-04T14:17:26.857Z,93.00
2019-03-04T14:21:30.431Z,92.00
2019-03-04T14:25:34.080Z,92.00
2019-03-04T14:29:37.759Z,90.30
2019-03-04T14:33:41.336Z,90.80
2019-03-04T14:37:45.556Z,90.40
2019-03-04T14:41:49.143Z,90.80
2019-03-04T14:45:54.309Z,91.20
2019-03-04T14:50:09.232Z,91.40
2019-03-04T14:54:03.451Z,91.20
2019-03-04T14:58:07.027Z,89.80
2019-03-04T15:02:10.680Z,89.50
2019-03-04T15:06:14.265Z,88.50
2019-03-04T15:10:17.873Z,87.40
2019-03-04T15:14:21.452Z,88.00
2019-03-04T15:18:25.033Z,89.70
2019-03-04T15:22:34.993Z,90.10
2019-03-04T15:26:41.727Z,90.50
2019-03-04T15:30:39.316Z,88.00
2019-03-04T15:34:42.900Z,86.30
2019-03-04T15:38:46.480Z,86.00
2019-03-04T15:42:50.063Z,86.50
2019-03-04T15:46:53.653Z,87.60
2019-03-04T15:50:57.315Z,88.70
2019-03-04T15:55:00.895Z,89.50
2019-03-04T15:59:04.615Z,90.60
2019-03-04T16:03:08.364Z,89.50
2019-03-04T16:07:12.787Z,89.70
2019-03-04T16:11:16.371Z,90.00
2019-03-04T16:15:22.786Z,89.20
2019-03-04T16:19:26.364Z,88.10
2019-03-04T16:23:29.954Z,87.00
2019-03-04T16:27:33.540Z,87.10
2019-03-04T16:31:37.123Z,87.90
2019-03-04T16:35:40.729Z,87.20
2019-03-04T16:39:44.308Z,86.60
2019-03-04T16:43:47.890Z,87.10
2019-03-04T16:47:51.544Z,85.90
2019-03-04T16:51:55.423Z,86.20
2019-03-04T16:55:58.991Z,86.90
2019-03-04T17:00:02.951Z,86.10
2019-03-04T17:04:06.644Z,86.40
2019-03-04T17:08:10.236Z,87.10
2019-03-04T17:12:13.808Z,86.30
2019-03-04T17:16:36.828Z,86.80
2019-03-04T17:20:40.418Z,86.90
2019-03-04T17:24:45.664Z,87.70
2019-03-04T17:28:49.284Z,89.10
2019-03-04T17:32:53.003Z,89.60
2019-03-04T17:36:56.619Z,88.80
2019-03-04T17:41:00.192Z,89.00
2019-03-04T17:45:04.603Z,89.20
2019-03-04T17:49:08.191Z,87.80
2019-03-04T17:53:13.316Z,88.80
2019-03-04T17:57:16.989Z,86.50
2019-03-04T18:01:20.573Z,85.70
2019-03-04T18:05:24.174Z,84.70
2019-03-04T18:09:27.748Z,85.20
2019-03-04T18:13:31.501Z,84.30
2019-03-04T18:17:35.102Z,85.60
2019-03-04T18:21:38.682Z,86.20
2019-03-04T18:25:50.798Z,84.50
2019-03-04T18:30:18.479Z,85.80
2019-03-04T18:34:37.001Z,85.60
2019-03-04T18:38:49.643Z,84.80
2019-03-04T18:42:59.032Z,84.50
2019-03-04T18:47:22.484Z,85.30
2019-03-04T18:51:30.773Z,83.60
2019-03-04T18:55:49.272Z,84.10
2019-03-04T18:59:53.558Z,82.90
2019-03-04T19:03:57.158Z,81.30
2019-03-04T19:08:01.368Z,80.30
2019-03-04T19:12:05.406Z,78.70
2019-03-04T19:16:09.802Z,79.50
2019-03-04T19:20:17.103Z,79.20
2019-03-04T19:24:21.327Z,77.80
2019-03-04T19:28:25.972Z,78.90
2019-03-04T19:32:30.024Z,77.20
2019-03-04T19:36:34.189Z,78.60
2019-03-04T19:40:38.621Z,78.40
2019-03-04T19:44:42.925Z,78.70
2019-03-04T19:48:46.981Z,77.20
2019-03-04T19:52:51.136Z,77.60
2019-03-04T19:56:55.100Z,78.50
2019-03-04T20:00:59.683Z,76.50
2019-03-04T20:05:04.074Z,77.70
2019-03-04T20:09:09.223Z,76.50
2019-03-04T20:13:12.867Z,76.80
2019-03-04T20:17:17.027Z,76.30
2019-03-04T20:21:21.163Z,77.10
2019-03-04T20:25:28.715Z,77.00
2019-03-04T20:29:33.234Z,75.80
2019-03-04T20:33:37.470Z,77.90
2019-03-04T20:37:44.958Z,75.70
2019-03-04T20:41:48.596Z,75.90
2019-03-04T20:45:52.271Z,77.00
2019-03-04T20:49:55.878Z,78.00
2019-03-04T20:53:59.468Z,77.90
2019-03-04T20:58:03.140Z,78.90
2019-03-04T21:02:06.851Z,77.80
2019-03-04T21:06:10.596Z,79.20
2019-03-04T21:10:15.135Z,79.40
2019-03-04T21:14:18.721Z,79.80
2019-03-04T21:18:22.482Z,79.90
2019-03-04T21:22:26.340Z,79.30
2019-03-04T21:26:30.075Z,80.00
2019-03-04T21:30:57.707Z,81.90
2019-03-04T21:35:04.371Z,81.90
2019-03-04T21:39:11.041Z,81.80
2019-03-04T21:43:20.872Z,82.80
2019-03-04T21:47:33.290Z,82.80
2019-03-04T21:51:45.525Z,82.80
2019-03-04T21:55:57.921Z,83.60
2019-03-04T22:00:01.582Z,84.10
2019-03-04T22:04:05.489Z,85.40
2019-03-04T22:08:09.211Z,86.40
2019-03-04T22:12:15.615Z,86.40
2019-03-04T22:16:19.191Z,87.70
2019-03-04T22:20:22.768Z,87.30
2019-03-04T22:24:26.367Z,88.10
2019-03-04T22:28:29.976Z,88.10
2019-03-04T22:32:33.566Z,88.50
2019-03-04T22:36:37.140Z,88.80
2019-03-04T22:40:40.705Z,88.60
2019-03-04T22:44:44.296Z,89.00
2019-03-04T22:48:47.948Z,89.50
2019-03-04T22:52:51.706Z,89.50
2019-03-04T22:56:55.332Z,89.70
2019-03-04T23:01:03.632Z,89.60
2019-03-04T23:05:10.477Z,89.30
2019-03-04T23:09:17.255Z,90.10
2019-03-04T23:13:26.589Z,89.20
2019-03-04T23:17:30.156Z,89.40
2019-03-04T23:21:33.780Z,89.90
2019-03-04T23:25:37.443Z,89.20
2019-03-04T23:29:41.028Z,90.00
2019-03-04T23:33:44.620Z,89.20
2019-03-04T23:37:48.354Z,90.00
2019-03-04T23:41:51.933Z,90.00
2019-03-04T23:45:55.545Z,90.00
2019-03-04T23:50:17.160Z,90.00
2019-03-04T23:54:20.764Z,89.40
2019-03-04T23:58:24.472Z,88.30
